Time;durP1;ratioP1;P1;durP2;ratioP2;P2;SDS_P1;SDS_P2;PMS_P1;PMS_P2;Temp;Humidity;BMP_temperature;BMP_pressure;BME280_temperature;BME280_humidity;BME280_pressure;Samples;Min_cycle;Max_cycle;Signal;HPM_P1;HPM_P2
2021/04/06 00:00:34;;;;;;;6.30;3.92;;;205.00;1664.00;;;;;;5094561;28;20086;-68
2021/04/06 00:03:02;;;;;;;7.18;4.32;;;205.10;1664.00;;;;;;5095121;28;20055;-69
2021/04/06 00:05:30;;;;;;;5.88;4.20;;;205.20;1664.00;;;;;;5094262;28;20454;-70
2021/04/06 00:07:58;;;;;;;9.70;4.15;;;205.00;1689.60;;;;;;5094396;28;20082;-68
2021/04/06 00:10:31;;;;;;;6.32;3.83;;;205.00;1689.60;;;;;;5094737;28;20427;-69
2021/04/06 00:12:58;;;;;;;8.35;4.13;;;205.00;1689.60;;;;;;5094250;28;20073;-68
2021/04/06 00:15:26;;;;;;;7.45;3.72;;;205.10;1689.60;;;;;;5094340;28;20028;-68
2021/04/06 00:17:56;;;;;;;6.55;4.03;;;205.00;1689.60;;;;;;5094299;28;20012;-68
2021/04/06 00:20:23;;;;;;;6.57;3.88;;;205.00;1715.20;;;;;;5091738;28;20399;-69
2021/04/06 00:22:50;;;;;;;7.20;4.75;;;204.90;1715.20;;;;;;5094229;28;20099;-69
2021/04/06 00:25:24;;;;;;;8.13;4.32;;;204.90;1715.20;;;;;;5094831;28;20111;-69
2021/04/06 00:27:52;;;;;;;7.90;4.93;;;204.80;1715.20;;;;;;5094364;28;20042;-70
2021/04/06 00:30:33;;;;;;;7.50;4.15;;;204.90;1715.20;;;;;;5094507;28;20119;-68
2021/04/06 00:33:12;;;;;;;6.93;4.43;;;204.80;1715.20;;;;;;5094751;28;20462;-68
2021/04/06 00:35:39;;;;;;;9.82;4.70;;;204.90;1715.20;;;;;;5094495;28;20028;-69
2021/04/06 00:38:07;;;;;;;6.20;3.95;;;204.80;1715.20;;;;;;5094539;28;20032;-68
2021/04/06 00:40:37;;;;;;;7.13;4.38;;;204.80;1715.20;;;;;;5093562;28;20032;-69
2021/04/06 00:43:04;;;;;;;8.27;4.20;;;204.80;1740.80;;;;;;5093871;28;20028;-69
2021/04/06 00:45:32;;;;;;;5.90;4.18;;;204.80;1715.20;;;;;;5093431;28;20020;-69
2021/04/06 00:48:02;;;;;;;6.17;4.30;;;180.10;1715.20;;;;;;5093391;28;20410;-69
2021/04/06 00:50:38;;;;;;;5.97;3.80;;;180.10;1715.20;;;;;;5091673;28;20169;-69
2021/04/06 00:53:04;;;;;;;6.88;4.43;;;204.80;1715.20;;;;;;5093891;28;20032;-68
2021/04/06 00:55:38;;;;;;;10.35;4.65;;;180.10;1715.20;;;;;;5096036;28;20023;-68
2021/04/06 00:58:25;;;;;;;7.38;4.90;;;204.80;1715.20;;;;;;5096885;28;20028;-70
2021/04/06 01:00:52;;;;;;;7.32;4.05;;;180.10;1740.80;;;;;;5097929;28;20324;-68
2021/04/06 01:03:18;;;;;;;7.57;4.22;;;180.00;1766.40;;;;;;5097834;28;20085;-70
2021/04/06 01:06:01;;;;;;;6.93;4.35;;;180.00;1740.80;;;;;;5097817;28;20482;-70
2021/04/06 01:08:36;;;;;;;5.50;3.83;;;180.00;1766.40;;;;;;5097571;28;20028;-69
2021/04/06 01:11:03;;;;;;;6.40;4.32;;;180.00;1766.40;;;;;;5097974;28;20024;-69
2021/04/06 01:13:30;;;;;;;6.75;4.05;;;180.00;1766.40;;;;;;5097877;28;20020;-69
2021/04/06 01:15:57;;;;;;;7.65;4.60;;;179.90;1766.40;;;;;;5097615;28;20168;-68
2021/04/06 01:18:25;;;;;;;6.82;4.30;;;179.90;1766.40;;;;;;5097721;28;20038;-69
2021/04/06 01:20:54;;;;;;;5.65;4.13;;;179.90;1766.40;;;;;;5097067;28;20334;-69
2021/04/06 01:23:20;;;;;;;;;;;179.90;1792.00;;;;;;5097774;28;20035;-70
2021/04/06 01:25:56;;;;;;;6.63;3.78;;;180.00;1766.40;;;;;;5097523;28;19908;-69
2021/04/06 01:28:27;;;;;;;6.43;4.20;;;179.90;1766.40;;;;;;5097361;28;20042;-70
2021/04/06 01:30:53;;;;;;;8.73;4.45;;;180.00;1792.00;;;;;;5097045;28;20032;-68
2021/04/06 01:33:23;;;;;;;6.50;4.25;;;180.00;1792.00;;;;;;5097037;28;20075;-69
2021/04/06 01:35:54;;;;;;;6.55;4.00;;;180.00;1766.40;;;;;;5096896;28;20031;-69
2021/04/06 01:38:24;;;;;;;9.18;4.00;;;179.90;1792.00;;;;;;5097211;28;20039;-70
2021/04/06 01:40:51;;;;;;;6.90;4.00;;;179.90;1792.00;;;;;;5097172;28;20032;-69
2021/04/06 01:43:19;;;;;;;8.00;3.97;;;179.90;1792.00;;;;;;5097047;28;20043;-68
2021/04/06 01:45:45;;;;;;;6.38;4.20;;;179.80;1792.00;;;;;;5096822;28;20434;-68
2021/04/06 01:48:17;;;;;;;7.53;4.20;;;179.80;1817.60;;;;;;5096643;28;20027;-69
2021/04/06 01:50:48;;;;;;;6.10;4.15;;;179.70;1817.60;;;;;;5097443;28;20024;-70
2021/04/06 01:53:15;;;;;;;7.18;4.50;;;179.70;1817.60;;;;;;5096888;28;20122;-69
2021/04/06 01:55:52;;;;;;;6.70;4.22;;;179.60;1817.60;;;;;;5097027;28;20032;-69
2021/04/06 01:58:20;;;;;;;8.63;4.35;;;179.60;1843.20;;;;;;5096601;28;20062;-68
2021/04/06 02:03:30;;;;;;;6.22;4.32;;;179.50;1843.20;;;;;;5096358;28;20076;-70
2021/04/06 02:05:57;;;;;;;7.47;4.72;;;179.60;1843.20;;;;;;5095782;28;20028;-70
2021/04/06 02:08:26;;;;;;;7.28;4.20;;;179.60;1843.20;;;;;;5096451;28;20040;-69
2021/04/06 02:10:53;;;;;;;8.93;5.13;;;179.60;1843.20;;;;;;5096515;28;20028;-69
2021/04/06 02:13:22;;;;;;;6.72;4.53;;;179.50;1843.20;;;;;;5096535;28;20023;-69
2021/04/06 02:15:57;;;;;;;;;;;179.50;1843.20;;;;;;5096703;28;20028;-68
2021/04/06 02:18:25;;;;;;;8.75;5.50;;;179.50;1843.20;;;;;;5095776;28;19912;-68
2021/04/06 02:20:52;;;;;;;7.50;4.82;;;179.40;1868.80;;;;;;5096434;28;20024;-69
2021/04/06 02:23:18;;;;;;;7.55;4.70;;;179.40;1843.20;;;;;;5096533;28;20031;-69
2021/04/06 02:25:52;;;;;;;9.70;5.35;;;179.40;1843.20;;;;;;5095602;28;20094;-69
2021/04/06 02:28:20;;;;;;;7.82;4.82;;;179.50;1843.20;;;;;;5096368;28;20040;-70
2021/04/06 02:30:57;;;;;;;8.52;5.78;;;179.50;1843.20;;;;;;5095490;28;20334;-70
2021/04/06 02:33:26;;;;;;;11.52;5.15;;;179.50;1843.20;;;;;;5095876;28;20048;-69
2021/04/06 02:35:57;;;;;;;9.00;4.40;;;179.50;1843.20;;;;;;5095485;28;20024;-70
2021/04/06 02:38:23;;;;;;;8.60;4.95;;;179.50;1843.20;;;;;;5096379;28;20039;-69
2021/04/06 02:41:00;;;;;;;10.30;4.93;;;179.40;1843.20;;;;;;5096062;28;20035;-68
2021/04/06 02:43:49;;;;;;;7.57;4.43;;;179.50;1843.20;;;;;;5095740;28;20028;-69
2021/04/06 02:46:16;;;;;;;;;;;179.50;1843.20;;;;;;5096210;28;20122;-69
2021/04/06 02:48:42;;;;;;;13.70;5.53;;;179.50;1843.20;;;;;;5095711;28;20001;-68
2021/04/06 02:51:09;;;;;;;7.28;5.22;;;179.30;1868.80;;;;;;5095394;28;20028;-68
2021/04/06 02:53:38;;;;;;;9.18;5.20;;;179.20;1894.40;;;;;;5095719;28;20038;-69
2021/04/06 02:56:04;;;;;;;13.32;7.30;;;154.50;1894.40;;;;;;5095652;28;20026;-68
2021/04/06 02:58:39;;;;;;;9.98;5.75;;;154.40;1945.60;;;;;;5095714;28;20039;-69
2021/04/06 03:01:13;;;;;;;9.40;5.30;;;154.30;1945.60;;;;;;5095463;28;20070;-69
2021/04/06 03:03:39;;;;;;;9.70;5.65;;;154.20;1945.60;;;;;;5096004;28;20322;-67
2021/04/06 03:06:12;;;;;;;12.43;5.18;;;154.20;1971.20;;;;;;5095144;28;20035;-68
2021/04/06 03:08:39;;;;;;;9.05;5.53;;;154.20;1971.20;;;;;;5094724;28;20498;-68
2021/04/06 03:11:08;;;;;;;8.68;5.45;;;154.00;1996.80;;;;;;5094320;28;20688;-68
2021/04/06 03:13:40;;;;;;;9.10;4.78;;;154.00;1996.80;;;;;;5095079;28;20074;-68
2021/04/06 03:16:08;;;;;;;8.23;5.32;;;153.90;2022.40;;;;;;5094751;28;20032;-68
2021/04/06 03:18:37;;;;;;;6.87;4.73;;;153.90;1996.80;;;;;;5095129;28;20126;-69
2021/04/06 03:21:08;;;;;;;9.52;5.60;;;154.00;2022.40;;;;;;5095335;28;20027;-68
2021/04/06 03:23:35;;;;;;;8.32;5.47;;;153.90;1996.80;;;;;;5095046;28;20035;-69
2021/04/06 03:26:03;;;;;;;7.22;4.47;;;153.80;2022.40;;;;;;5095475;28;20024;-69
2021/04/06 03:28:39;;;;;;;10.02;5.18;;;153.70;2048.00;;;;;;5094815;28;20074;-68
2021/04/06 03:31:20;;;;;;;8.77;4.55;;;153.70;2073.60;;;;;;5094822;28;20098;-70
2021/04/06 03:33:48;;;;;;;10.18;4.95;;;153.60;2073.60;;;;;;5095358;28;20138;-69
2021/04/06 03:36:24;;;;;;;11.57;5.95;;;128.90;2073.60;;;;;;5095029;28;20107;-68
2021/04/06 03:38:57;;;;;;;7.78;4.50;;;128.90;2073.60;;;;;;5095359;28;20032;-68
2021/04/06 03:41:26;;;;;;;7.68;4.50;;;128.80;2099.20;;;;;;5095016;28;20061;-68
2021/04/06 03:43:53;;;;;;;6.93;4.97;;;128.80;2099.20;;;;;;5095074;28;20027;-68
2021/04/06 03:46:25;;;;;;;9.15;5.22;;;128.80;2124.80;;;;;;5095247;28;20035;-69
2021/04/06 03:48:52;;;;;;;7.03;4.72;;;128.70;2124.80;;;;;;5094812;28;20088;-69
2021/04/06 03:51:29;;;;;;;7.70;4.75;;;128.60;2150.40;;;;;;5095065;28;20031;-69
2021/04/06 03:53:56;;;;;;;9.05;5.00;;;128.40;2201.60;;;;;;5094495;28;20445;-69
2021/04/06 03:56:32;;;;;;;10.48;5.00;;;128.30;2227.20;;;;;;5094441;28;20020;-69
2021/04/06 03:59:08;;;;;;;8.05;5.00;;;128.30;2227.20;;;;;;5076644;28;20036;-69
2021/04/06 04:01:34;;;;;;;7.13;4.55;;;128.40;2227.20;;;;;;5094878;28;20063;-69
2021/04/06 04:04:00;;;;;;;8.30;5.43;;;128.30;2252.80;;;;;;5094221;28;20101;-68
2021/04/06 04:06:27;;;;;;;9.63;5.30;;;128.20;2252.80;;;;;;5094998;28;20080;-68
2021/04/06 04:08:56;;;;;;;8.82;5.28;;;128.20;2252.80;;;;;;5094484;28;20063;-70
2021/04/06 04:11:22;;;;;;;9.38;5.47;;;128.20;2252.80;;;;;;5093864;28;20036;-68
2021/04/06 04:13:48;;;;;;;9.88;5.82;;;128.10;2252.80;;;;;;5094362;28;20028;-69
2021/04/06 04:16:15;;;;;;;8.88;5.22;;;128.20;2252.80;;;;;;5093973;28;20094;-69
2021/04/06 04:18:41;;;;;;;9.13;5.20;;;128.30;2252.80;;;;;;5094112;28;20065;-68
2021/04/06 04:21:10;;;;;;;9.65;5.50;;;128.40;2252.80;;;;;;5093818;28;20098;-69
2021/04/06 04:23:36;;;;;;;;;;;128.40;2252.80;;;;;;5092013;28;20016;-69
2021/04/06 04:26:03;;;;;;;7.68;5.45;;;128.30;2252.80;;;;;;5093912;28;20184;-69
2021/04/06 04:28:28;;;;;;;8.73;5.32;;;128.20;2252.80;;;;;;5095431;28;20032;-69
2021/04/06 04:30:54;;;;;;;9.15;4.75;;;128.20;2252.80;;;;;;5097454;28;20449;-70
2021/04/06 04:33:20;;;;;;;8.55;4.88;;;128.20;2252.80;;;;;;5097169;28;20077;-69
2021/04/06 04:35:46;;;;;;;10.27;4.97;;;128.20;2252.80;;;;;;5097233;28;20114;-69
2021/04/06 04:38:12;;;;;;;9.35;5.38;;;128.30;2252.80;;;;;;5097048;28;20052;-69
2021/04/06 04:40:42;;;;;;;10.65;4.63;;;128.40;2252.80;;;;;;5097619;28;20047;-69
2021/04/06 04:43:12;;;;;;;9.02;5.90;;;128.40;2252.80;;;;;;5098651;28;20032;-69
2021/04/06 04:45:38;;;;;;;10.20;5.70;;;128.30;2252.80;;;;;;5098137;28;20025;-70
2021/04/06 04:48:05;;;;;;;7.32;4.57;;;128.30;2252.80;;;;;;5098106;28;20063;-68
2021/04/06 04:50:31;;;;;;;7.10;4.93;;;128.60;2252.80;;;;;;5098116;28;20419;-69
2021/04/06 04:52:58;;;;;;;9.18;5.53;;;128.70;2252.80;;;;;;5097242;28;20032;-68
2021/04/06 04:55:24;;;;;;;8.65;5.65;;;128.90;2252.80;;;;;;5098232;28;20107;-69
2021/04/06 04:57:50;;;;;;;8.13;5.35;;;153.60;2252.80;;;;;;5097726;28;20039;-69
2021/04/06 05:00:17;;;;;;;8.20;5.47;;;128.90;2252.80;;;;;;5097101;28;20032;-69
2021/04/06 05:02:43;;;;;;;10.75;5.65;;;153.70;2252.80;;;;;;5097826;28;20020;-69
2021/04/06 05:05:11;;;;;;;14.52;5.72;;;153.70;2252.80;;;;;;5097749;28;20032;-68
2021/04/06 05:07:37;;;;;;;22.58;6.32;;;153.80;2252.80;;;;;;5097524;28;20031;-71
2021/04/06 05:10:06;;;;;;;17.50;6.03;;;154.00;2252.80;;;;;;5097481;28;20173;-70
2021/04/06 05:12:32;;;;;;;10.23;5.90;;;153.90;2252.80;;;;;;5097959;28;20055;-68
2021/04/06 05:14:58;;;;;;;9.02;5.97;;;154.00;2252.80;;;;;;5097894;28;20288;-69
2021/04/06 05:17:24;;;;;;;12.70;6.43;;;154.00;2252.80;;;;;;5097563;28;20096;-69
2021/04/06 05:19:49;;;;;;;20.30;11.88;;;154.10;2252.80;;;;;;5097549;28;20482;-69
2021/04/06 05:22:15;;;;;;;21.45;13.60;;;154.20;2252.80;;;;;;5097033;28;20028;-69
2021/04/06 05:24:42;;;;;;;13.40;8.13;;;154.30;2252.80;;;;;;5097405;28;20086;-69
2021/04/06 05:27:08;;;;;;;22.17;15.52;;;154.50;2252.80;;;;;;5097322;28;20422;-70
2021/04/06 05:29:34;;;;;;;9.40;6.80;;;179.30;2252.80;;;;;;5097081;28;20042;-69
2021/04/06 05:32:00;;;;;;;11.90;9.25;;;179.40;2252.80;;;;;;5096945;28;20478;-69
2021/04/06 05:34:25;;;;;;;9.45;6.47;;;179.50;2252.80;;;;;;5097051;28;20063;-69
2021/04/06 05:36:51;;;;;;;7.95;5.65;;;179.60;2252.80;;;;;;5096912;28;20024;-69
2021/04/06 05:39:17;;;;;;;12.48;6.75;;;179.50;2252.80;;;;;;5097253;28;20177;-69
2021/04/06 05:41:44;;;;;;;10.05;6.03;;;179.50;2252.80;;;;;;5096083;28;20036;-68
2021/04/06 05:44:11;;;;;;;15.30;7.18;;;179.40;2252.80;;;;;;5097060;28;20115;-70
2021/04/06 05:46:39;;;;;;;9.77;6.60;;;179.50;2252.80;;;;;;5096798;28;20042;-69
2021/04/06 05:49:13;;;;;;;12.27;6.73;;;179.60;2252.80;;;;;;5095192;28;20036;-69
2021/04/06 05:51:39;;;;;;;10.85;6.38;;;179.80;2252.80;;;;;;5094303;28;20441;-69
2021/04/06 05:54:08;;;;;;;21.27;9.82;;;180.00;2252.80;;;;;;5096359;28;20024;-69
2021/04/06 05:56:34;;;;;;;14.65;9.23;;;180.10;2252.80;;;;;;5093400;28;20059;-70
2021/04/06 05:59:00;;;;;;;16.80;9.07;;;204.90;2252.80;;;;;;5095952;28;20511;-70
2021/04/06 06:01:30;;;;;;;13.05;8.20;;;204.90;2252.80;;;;;;5096167;28;20097;-68
2021/04/06 06:03:56;;;;;;;16.30;8.73;;;205.00;2252.80;;;;;;5095834;28;20042;-68
2021/04/06 06:06:23;;;;;;;15.57;8.88;;;205.10;2252.80;;;;;;5095807;28;20410;-72
2021/04/06 06:08:52;;;;;;;16.50;10.40;;;205.20;2252.80;;;;;;5095699;28;20066;-71
2021/04/06 06:11:18;;;;;;;18.17;10.70;;;205.30;2252.80;;;;;;5095168;28;20419;-70
2021/04/06 06:13:43;;;;;;;13.43;7.07;;;205.40;2227.20;;;;;;5095436;28;20024;-68
2021/04/06 06:16:27;;;;;;;20.40;11.55;;;205.50;2227.20;;;;;;5095421;28;20016;-69
2021/04/06 06:19:00;;;;;;;26.75;13.95;;;205.60;2252.80;;;;;;5093329;28;20036;-69
2021/04/06 06:21:51;;;;;;;28.77;13.35;;;205.70;2201.60;;;;;;5093133;28;20016;-70
2021/04/06 06:24:38;;;;;;;26.20;12.73;;;230.50;2201.60;;;;;;5094360;28;20110;-66
2021/04/06 06:27:33;;;;;;;18.42;10.48;;;230.60;2150.40;;;;;;5094559;28;20024;-67
2021/04/06 06:30:18;;;;;;;13.50;8.05;;;230.80;2124.80;;;;;;5093256;28;20130;-67
2021/04/06 06:32:43;;;;;;;14.93;7.40;;;230.70;2124.80;;;;;;5094017;28;20056;-70
2021/04/06 06:35:09;;;;;;;13.38;6.75;;;230.80;2099.20;;;;;;5095288;28;20055;-72
2021/04/06 06:37:35;;;;;;;11.52;6.38;;;230.90;2099.20;;;;;;5093726;28;20419;-71
2021/04/06 06:40:04;;;;;;;8.38;5.22;;;231.00;2022.40;;;;;;5093159;28;20032;-69
2021/04/06 06:42:32;;;;;;;;;;;231.20;1971.20;;;;;;5094480;28;20035;-71
2021/04/06 06:44:59;;;;;;;9.52;4.60;;;256.00;1996.80;;;;;;5091889;28;20002;-71
2021/04/06 06:47:27;;;;;;;11.75;5.30;;;256.10;1945.60;;;;;;5095069;28;20028;-70
2021/04/06 06:49:55;;;;;;;10.45;5.57;;;256.10;1920.00;;;;;;5095269;28;20097;-71
2021/04/06 06:52:27;;;;;;;10.97;5.93;;;256.30;1971.20;;;;;;5094622;28;20031;-71
2021/04/06 06:55:17;;;;;;;15.25;5.65;;;256.40;1945.60;;;;;;5094800;28;20373;-73
2021/04/06 06:57:43;;;;;;;9.75;5.90;;;256.40;1971.20;;;;;;5089429;28;20040;-70
2021/04/06 07:00:18;;;;;;;10.60;5.28;;;256.40;1945.60;;;;;;5094955;28;20035;-72
2021/04/06 07:02:44;;;;;;;12.10;6.32;;;256.60;1920.00;;;;;;5095205;28;20024;-70
2021/04/06 07:05:13;;;;;;;10.07;6.35;;;256.50;1920.00;;;;;;5093906;28;20343;-72
2021/04/06 07:07:48;;;;;;;;;;;256.70;1945.60;;;;;;5091944;28;20047;-69
2021/04/06 07:10:15;;;;;;;11.73;7.13;;;256.80;1945.60;;;;;;5094164;28;19926;-67
2021/04/06 07:12:46;;;;;;;8.77;5.82;;;281.60;1945.60;;;;;;5075922;28;20427;-69
2021/04/06 07:15:15;;;;;;;8.43;4.90;;;256.90;1894.40;;;;;;5094244;28;20098;-68
2021/04/06 07:17:42;;;;;;;;;;;256.90;1920.00;;;;;;5094548;28;20085;-69
2021/04/06 07:20:19;;;;;;;10.60;6.30;;;256.90;1945.60;;;;;;5094098;28;19962;-70
2021/04/06 07:22:52;;;;;;;9.75;5.15;;;281.70;1971.20;;;;;;5094644;28;20423;-69
2021/04/06 07:25:19;;;;;;;7.00;4.13;;;281.60;1843.20;;;;;;5091433;28;20110;-69
2021/04/06 07:27:46;;;;;;;8.45;5.00;;;256.90;1817.60;;;;;;5094146;28;20296;-70
2021/04/06 07:30:13;;;;;;;10.05;4.93;;;281.70;1817.60;;;;;;5094266;28;20034;-68
2021/04/06 07:32:42;;;;;;;8.48;5.55;;;281.90;1868.80;;;;;;5092148;28;20409;-68
2021/04/06 07:35:10;;;;;;;8.57;5.55;;;282.00;1868.80;;;;;;5094069;28;20119;-68
2021/04/06 07:37:40;;;;;;;14.65;5.25;;;282.20;1868.80;;;;;;5091769;28;20047;-70
2021/04/06 07:40:09;;;;;;;9.60;5.00;;;282.30;1817.60;;;;;;5094664;28;20024;-68
2021/04/06 07:42:41;;;;;;;10.50;5.32;;;282.40;1792.00;;;;;;5094845;28;20052;-68
2021/04/06 07:45:23;;;;;;;8.93;4.75;;;282.40;1817.60;;;;;;5073683;28;20036;-67
2021/04/06 07:47:50;;;;;;;8.02;5.30;;;282.40;1792.00;;;;;;5094242;28;20028;-69
2021/04/06 07:50:38;;;;;;;7.68;4.63;;;282.40;1792.00;;;;;;5094738;28;20028;-70
2021/04/06 07:53:27;;;;;;;7.47;5.15;;;307.30;1792.00;;;;;;5094172;28;20032;-69
2021/04/06 07:55:54;;;;;;;7.60;5.03;;;307.50;1766.40;;;;;;5093603;28;20024;-68
2021/04/06 07:58:46;;;;;;;10.05;5.60;;;308.00;1792.00;;;;;;5095065;28;20032;-69
2021/04/06 08:01:25;;;;;;;9.68;5.28;;;333.10;1792.00;;;;;;5091849;28;20048;-68
2021/04/06 08:03:54;;;;;;;8.25;4.30;;;333.40;1715.20;;;;;;5096633;28;20490;-67
2021/04/06 08:06:22;;;;;;;7.47;4.30;;;333.70;1587.20;;;;;;5098234;28;20031;-67
2021/04/06 08:08:47;;;;;;;7.93;4.07;;;358.50;1561.60;;;;;;5097472;28;20044;-69
2021/04/06 08:11:14;;;;;;;8.35;4.65;;;359.00;1536.00;;;;;;5098164;28;20023;-70
2021/04/06 08:13:41;;;;;;;8.07;5.00;;;359.10;1587.20;;;;;;5097909;28;20099;-68
2021/04/06 08:16:11;;;;;;;10.52;3.90;;;358.80;1510.40;;;;;;5097222;28;20435;-67
2021/04/06 08:18:50;;;;;;;9.52;4.30;;;358.90;1382.40;;;;;;5098148;28;20442;-69
2021/04/06 08:21:18;;;;;;;9.70;4.60;;;359.30;1459.20;;;;;;5096763;28;20024;-69
2021/04/06 08:23:47;;;;;;;9.13;5.28;;;384.10;1510.40;;;;;;5098409;28;20024;-68
2021/04/06 08:26:33;;;;;;;11.95;4.63;;;384.60;1459.20;;;;;;5098351;28;20102;-70
2021/04/06 08:29:24;;;;;;;9.40;5.07;;;384.80;1408.00;;;;;;5098426;28;20419;-67
2021/04/06 08:32:16;;;;;;;23.88;12.63;;;384.70;1356.80;;;;;;5095056;28;20027;-70
2021/04/06 08:34:52;;;;;;;10.95;5.45;;;410.10;1408.00;;;;;;5091283;28;20028;-69
2021/04/06 08:37:38;;;;;;;10.43;5.68;;;409.90;1433.60;;;;;;5097241;28;20032;-69
2021/04/06 08:40:07;;;;;;;8.98;5.13;;;410.20;1433.60;;;;;;5096870;28;20054;-69
2021/04/06 08:42:34;;;;;;;6.95;4.43;;;409.70;1433.60;;;;;;5098157;28;20047;-69
2021/04/06 08:45:01;;;;;;;7.03;4.32;;;409.80;1382.40;;;;;;5097728;28;20035;-69
2021/04/06 08:47:45;;;;;;;8.77;4.68;;;410.40;1331.20;;;;;;5098388;28;20024;-68
2021/04/06 08:50:19;;;;;;;8.02;3.92;;;435.60;1305.60;;;;;;5098167;28;20068;-70
2021/04/06 08:52:46;;;;;;;7.75;5.32;;;435.70;1280.00;;;;;;5095950;28;20039;-68
2021/04/06 08:55:15;;;;;;;6.72;3.33;;;435.90;1177.60;;;;;;5097403;28;20649;-69
2021/04/06 08:57:41;;;;;;;7.20;3.65;;;435.50;1177.60;;;;;;5094965;28;20427;-69
2021/04/06 09:00:18;;;;;;;5.55;3.40;;;435.60;1228.80;;;;;;5097066;28;20035;-67
2021/04/06 09:02:43;;;;;;;8.93;3.88;;;410.40;1280.00;;;;;;5097428;28;20031;-67
2021/04/06 09:05:11;;;;;;;6.05;3.90;;;409.90;1203.20;;;;;;5096742;28;20036;-70
2021/04/06 09:07:39;;;;;;;6.50;4.22;;;409.90;1203.20;;;;;;5096825;28;20024;-69
2021/04/06 09:10:10;;;;;;;7.65;3.97;;;409.60;1280.00;;;;;;5096928;28;20032;-71
2021/04/06 09:12:43;;;;;;;8.18;4.85;;;384.90;1254.40;;;;;;5094359;28;20027;-69
2021/04/06 09:15:11;;;;;;;6.85;3.65;;;384.70;1228.80;;;;;;5096110;28;20024;-70
2021/04/06 09:17:39;;;;;;;7.22;4.15;;;384.70;1228.80;;;;;;5096433;28;20035;-69
2021/04/06 09:20:16;;;;;;;7.43;4.03;;;384.40;1305.60;;;;;;5095930;28;20032;-70
2021/04/06 09:22:50;;;;;;;7.10;4.45;;;384.70;1228.80;;;;;;5093170;28;20728;-69
2021/04/06 09:25:25;;;;;;;6.43;3.50;;;384.90;1254.40;;;;;;5094073;28;20031;-72
2021/04/06 09:27:53;;;;;;;6.18;3.50;;;384.30;1254.40;;;;;;5095565;28;20035;-70
2021/04/06 09:30:31;;;;;;;7.03;5.03;;;359.20;1305.60;;;;;;5095447;28;20043;-69
2021/04/06 09:33:01;;;;;;;5.97;3.35;;;359.10;1356.80;;;;;;5093863;28;20401;-69
2021/04/06 09:35:27;;;;;;;8.15;3.97;;;358.70;1305.60;;;;;;5093118;28;20027;-70
2021/04/06 09:37:57;;;;;;;7.93;3.58;;;358.50;1331.20;;;;;;5095681;28;20024;-69
2021/04/06 09:40:34;;;;;;;7.55;3.88;;;358.60;1331.20;;;;;;5095312;28;20051;-67
2021/04/06 09:43:00;;;;;;;7.03;3.45;;;358.90;1331.20;;;;;;5095887;28;20042;-69
2021/04/06 09:45:27;;;;;;;7.85;4.05;;;359.20;1331.20;;;;;;5091820;28;20020;-69
2021/04/06 09:47:54;;;;;;;9.13;4.00;;;359.10;1254.40;;;;;;5094813;28;20341;-70
2021/04/06 09:50:22;;;;;;;10.60;8.48;;;359.20;1280.00;;;;;;5094640;28;20479;-68
2021/04/06 09:52:48;;;;;;;7.80;3.80;;;384.00;1228.80;;;;;;5091591;28;20027;-69
2021/04/06 09:55:14;;;;;;;9.38;4.10;;;384.50;1254.40;;;;;;5094617;28;20055;-70
2021/04/06 09:57:43;;;;;;;6.40;3.88;;;384.60;1228.80;;;;;;5094794;28;20028;-69
2021/04/06 10:00:15;;;;;;;6.95;3.50;;;384.60;1203.20;;;;;;5095238;28;20040;-69
2021/04/06 10:02:43;;;;;;;6.18;3.08;;;384.70;1254.40;;;;;;5092185;28;20060;-70
2021/04/06 10:05:19;;;;;;;6.40;3.92;;;384.80;1254.40;;;;;;5095060;28;20335;-70
2021/04/06 10:07:49;;;;;;;7.25;3.72;;;409.60;1203.20;;;;;;5093362;28;20121;-70
2021/04/06 10:10:23;;;;;;;7.35;3.75;;;409.70;1203.20;;;;;;5094493;28;20375;-68
2021/04/06 10:12:51;;;;;;;6.15;3.47;;;409.70;1152.00;;;;;;5092430;28;20431;-70
2021/04/06 10:15:28;;;;;;;4.95;3.20;;;409.60;1177.60;;;;;;5094354;28;20024;-69
2021/04/06 10:18:09;;;;;;;6.63;3.80;;;384.80;1152.00;;;;;;5093799;28;20031;-70
2021/04/06 10:20:42;;;;;;;8.98;5.05;;;384.50;1126.40;;;;;;5084099;28;20028;-68
2021/04/06 10:23:08;;;;;;;12.00;6.32;;;384.50;1228.80;;;;;;5075865;28;20032;-65
2021/04/06 10:25:42;;;;;;;20.40;9.73;;;384.10;1305.60;;;;;;5075428;28;20170;-68
2021/04/06 10:28:20;;;;;;;16.08;9.75;;;359.20;1433.60;;;;;;5075798;28;20028;-68
2021/04/06 10:30:48;;;;;;;14.13;9.50;;;358.90;1484.80;;;;;;5093824;28;20039;-66
2021/04/06 10:33:16;;;;;;;18.43;10.37;;;358.80;1459.20;;;;;;5091856;28;20450;-68
2021/04/06 10:35:51;;;;;;;14.52;9.63;;;358.50;1484.80;;;;;;5069705;28;20101;-67
2021/04/06 10:38:24;;;;;;;16.67;9.70;;;358.40;1536.00;;;;;;5095271;28;20028;-66
2021/04/06 10:41:09;;;;;;;13.10;9.30;;;358.40;1587.20;;;;;;5095166;28;20414;-67
2021/04/06 10:43:41;;;;;;;21.50;10.07;;;333.70;1638.40;;;;;;5094977;28;20102;-67
2021/04/06 10:46:19;;;;;;;22.70;9.52;;;333.60;1612.80;;;;;;5094633;28;20035;-69
2021/04/06 10:48:47;;;;;;;16.33;9.48;;;333.40;1638.40;;;;;;5093184;28;20071;-69
2021/04/06 10:51:19;;;;;;;23.40;11.13;;;333.00;1689.60;;;;;;5094930;28;20157;-69
2021/04/06 10:53:49;;;;;;;18.63;9.80;;;307.70;1689.60;;;;;;5095086;28;20082;-67
2021/04/06 10:56:26;;;;;;;20.25;9.50;;;307.50;1766.40;;;;;;5095187;28;20415;-69
2021/04/06 10:58:54;;;;;;;13.18;8.40;;;307.20;1766.40;;;;;;5094586;28;20415;-68
2021/04/06 11:01:23;;;;;;;15.43;8.68;;;307.20;1766.40;;;;;;5095045;28;20041;-69
2021/04/06 11:03:55;;;;;;;11.07;7.05;;;307.20;1817.60;;;;;;5094871;28;20092;-69
2021/04/06 11:06:22;;;;;;;16.73;7.03;;;307.20;1792.00;;;;;;5095024;28;20031;-69
2021/04/06 11:08:50;;;;;;;14.68;7.18;;;307.30;1792.00;;;;;;5092634;28;20139;-68
2021/04/06 11:11:34;;;;;;;9.43;5.38;;;307.60;1766.40;;;;;;5094871;28;20032;-68
2021/04/06 11:14:05;;;;;;;11.60;5.57;;;307.60;1817.60;;;;;;5094075;28;20431;-69
2021/04/06 11:16:31;;;;;;;10.32;6.97;;;307.90;1766.40;;;;;;5095420;28;20029;-69
2021/04/06 11:19:06;;;;;;;12.27;6.72;;;333.10;1740.80;;;;;;5094725;28;20136;-68
2021/04/06 11:21:37;;;;;;;15.82;7.35;;;333.40;1689.60;;;;;;5091818;28;20095;-68
2021/04/06 11:24:04;;;;;;;10.15;6.65;;;333.50;1612.80;;;;;;5095287;28;20024;-68
2021/04/06 11:26:30;;;;;;;16.02;6.50;;;333.40;1612.80;;;;;;5095388;28;20468;-68
2021/04/06 11:28:56;;;;;;;11.15;5.43;;;333.50;1664.00;;;;;;5094590;28;20028;-68
2021/04/06 11:31:23;;;;;;;10.63;5.45;;;333.40;1638.40;;;;;;5095136;28;20035;-68
2021/04/06 11:33:49;;;;;;;7.85;5.30;;;333.20;1664.00;;;;;;5094493;28;20344;-68
2021/04/06 11:36:15;;;;;;;8.65;5.15;;;333.30;1638.40;;;;;;5094152;28;20087;-72
2021/04/06 11:38:41;;;;;;;6.88;5.00;;;358.40;1612.80;;;;;;5094192;28;20111;-72
2021/04/06 11:41:07;;;;;;;7.05;4.60;;;358.40;1612.80;;;;;;5094781;28;20438;-72
2021/04/06 11:43:34;;;;;;;11.35;4.60;;;358.40;1612.80;;;;;;5094819;28;20073;-71
2021/04/06 11:46:00;;;;;;;11.02;5.13;;;333.60;1638.40;;;;;;5095250;28;20035;-71
2021/04/06 11:48:26;;;;;;;7.38;4.85;;;333.70;1664.00;;;;;;5095185;28;20419;-73
2021/04/06 11:50:52;;;;;;;12.07;5.28;;;333.60;1612.80;;;;;;5094716;28;20028;-73
2021/04/06 11:53:18;;;;;;;11.57;4.20;;;333.70;1638.40;;;;;;5095463;28;20031;-72
2021/04/06 11:55:45;;;;;;;10.85;4.90;;;359.10;1561.60;;;;;;5094620;28;20403;-72
2021/04/06 11:58:10;;;;;;;8.57;4.68;;;358.90;1561.60;;;;;;5094443;28;20024;-73
2021/04/06 12:00:36;;;;;;;12.05;4.43;;;359.10;1561.60;;;;;;5094497;28;20036;-72
2021/04/06 12:03:03;;;;;;;10.05;4.28;;;359.10;1561.60;;;;;;5094306;28;20113;-73
2021/04/06 12:05:29;;;;;;;6.55;4.25;;;358.90;1536.00;;;;;;5091813;28;20038;-73
2021/04/06 12:07:55;;;;;;;9.18;4.63;;;359.10;1587.20;;;;;;5094225;28;20315;-72
2021/04/06 12:10:21;;;;;;;5.93;3.83;;;384.10;1536.00;;;;;;5093682;28;20024;-72
2021/04/06 12:12:48;;;;;;;6.20;3.88;;;384.90;1459.20;;;;;;5094089;28;20483;-71
2021/04/06 12:15:14;;;;;;;5.50;3.83;;;410.00;1484.80;;;;;;5094706;28;20036;-72
2021/04/06 12:17:40;;;;;;;8.68;4.20;;;410.10;1459.20;;;;;;5094738;28;20024;-72
2021/04/06 12:20:07;;;;;;;8.15;7.00;;;435.90;1408.00;;;;;;5094898;28;20380;-72
2021/04/06 12:22:34;;;;;;;13.43;12.05;;;486.90;1280.00;;;;;;5094728;28;20047;-71
2021/04/06 12:25:00;;;;;;;11.48;9.18;;;512.80;1203.20;;;;;;5093735;28;20035;-72
2021/04/06 12:27:26;;;;;;;12.55;11.48;;;538.50;1152.00;;;;;;5075740;28;20024;-73
2021/04/06 12:29:52;;;;;;;13.95;8.27;;;563.80;1126.40;;;;;;5093867;28;20031;-72
2021/04/06 12:32:18;;;;;;;8.25;7.38;;;563.50;1152.00;;;;;;5093291;28;20434;-72